createdAt,value
2022-11-27T00:01:19.286Z,7.82
2022-11-27T00:03:46.717Z,8.40
2022-11-27T00:06:16.512Z,7.70
2022-11-27T00:08:44.744Z,8.05
2022-11-27T00:11:16.051Z,7.35
2022-11-27T00:13:43.680Z,9.50
2022-11-27T00:16:12.129Z,7.80
2022-11-27T00:18:40.245Z,8.05
2022-11-27T00:21:13.682Z,7.13
2022-11-27T00:23:41.394Z,7.43
2022-11-27T00:26:09.542Z,7.57
2022-11-27T00:28:38.072Z,6.78
2022-11-27T00:31:08.951Z,6.97
2022-11-27T00:33:37.710Z,6.63
2022-11-27T00:36:05.947Z,7.00
2022-11-27T00:38:38.475Z,7.18
2022-11-27T00:41:14.984Z,6.53
2022-11-27T00:43:44.842Z,6.82
2022-11-27T00:46:29.070Z,7.07
2022-11-27T00:48:58.312Z,7.30
2022-11-27T00:51:27.345Z,7.30
2022-11-27T00:53:55.516Z,6.80
2022-11-27T00:56:31.618Z,6.93
2022-11-27T00:58:59.237Z,7.13
2022-11-27T01:01:39.707Z,7.53
2022-11-27T01:04:09.178Z,7.03
2022-11-27T01:06:38.470Z,6.82
2022-11-27T01:09:05.927Z,7.10
2022-11-27T01:11:35.134Z,6.68
2022-11-27T01:14:06.125Z,6.90
2022-11-27T01:16:34.177Z,6.07
2022-11-27T01:19:02.341Z,7.05
2022-11-27T01:21:32.418Z,6.60
2022-11-27T01:24:01.065Z,6.32
2022-11-27T01:26:29.229Z,6.20
2022-11-27T01:28:58.098Z,6.22
2022-11-27T01:31:30.945Z,7.10
2022-11-27T01:34:12.945Z,6.50
2022-11-27T01:36:40.660Z,6.75
2022-11-27T01:39:08.136Z,6.40
2022-11-27T01:41:39.973Z,6.18
2022-11-27T01:44:25.484Z,7.97
2022-11-27T01:46:54.959Z,7.50
2022-11-27T01:49:41.275Z,6.78
2022-11-27T01:52:16.127Z,6.32
2022-11-27T01:54:50.655Z,6.68
2022-11-27T01:57:43.634Z,6.72
2022-11-27T02:00:14.158Z,6.97
2022-11-27T02:02:43.417Z,7.43
2022-11-27T02:05:14.503Z,7.50
2022-11-27T02:07:41.844Z,6.93
2022-11-27T02:10:09.640Z,7.25
2022-11-27T02:12:59.851Z,6.85
2022-11-27T02:15:45.007Z,7.28
2022-11-27T02:18:38.692Z,7.65
2022-11-27T02:21:33.871Z,6.18
2022-11-27T02:24:26.229Z,6.43
2022-11-27T02:27:21.165Z,6.35
2022-11-27T02:29:54.459Z,6.70
2022-11-27T02:32:27.059Z,7.30
2022-11-27T02:35:18.029Z,6.30
2022-11-27T02:37:58.514Z,6.10
2022-11-27T02:40:44.195Z,6.60
2022-11-27T02:45:48.223Z,6.15
2022-11-27T02:48:18.425Z,7.07
2022-11-27T02:50:46.676Z,6.72
2022-11-27T02:53:26.737Z,6.63
2022-11-27T02:55:56.744Z,6.78
2022-11-27T02:58:28.313Z,6.22
2022-11-27T03:00:57.743Z,6.03
2022-11-27T03:03:30.167Z,6.57
2022-11-27T03:06:05.977Z,6.22
2022-11-27T03:08:51.257Z,6.75
2022-11-27T03:11:18.377Z,6.57
2022-11-27T03:13:50.630Z,6.97
2022-11-27T03:16:55.439Z,6.35
2022-11-27T03:19:33.431Z,6.00
2022-11-27T03:22:02.604Z,5.93
2022-11-27T03:24:32.160Z,5.72
2022-11-27T03:26:59.735Z,6.22
2022-11-27T03:29:26.689Z,6.80
2022-11-27T03:31:55.396Z,6.25
2022-11-27T03:34:22.717Z,6.22
2022-11-27T03:36:49.977Z,7.55
2022-11-27T03:39:17.272Z,7.20
2022-11-27T03:42:34.936Z,6.70
2022-11-27T03:45:31.413Z,6.28
2022-11-27T03:48:17.824Z,6.45
2022-11-27T03:51:05.934Z,6.00
2022-11-27T03:53:58.246Z,6.28
2022-11-27T03:56:44.125Z,5.68
2022-11-27T03:59:18.128Z,5.15
2022-11-27T04:01:45.269Z,4.95
2022-11-27T04:04:12.518Z,4.45
2022-11-27T04:06:40.260Z,4.15
2022-11-27T04:09:07.493Z,4.68
2022-11-27T04:11:34.954Z,4.60
2022-11-27T04:14:02.672Z,3.90
2022-11-27T04:16:29.814Z,4.40
2022-11-27T04:18:57.793Z,3.88
2022-11-27T04:21:24.842Z,4.13
2022-11-27T04:23:51.841Z,4.25
2022-11-27T04:26:19.010Z,4.57
2022-11-27T04:28:46.255Z,3.80
2022-11-27T04:31:13.590Z,4.10
2022-11-27T04:33:40.702Z,4.28
2022-11-27T04:36:07.935Z,3.83
2022-11-27T04:38:38.035Z,4.13
2022-11-27T04:41:05.239Z,3.90
2022-11-27T04:43:34.979Z,3.53
2022-11-27T04:46:02.048Z,3.75
2022-11-27T04:48:29.233Z,4.10
2022-11-27T04:50:56.310Z,3.63
2022-11-27T04:53:27.999Z,3.55
2022-11-27T04:55:55.348Z,3.80
2022-11-27T04:58:23.156Z,3.20
2022-11-27T05:00:50.956Z,4.03
2022-11-27T05:03:17.992Z,4.80
2022-11-27T05:05:45.045Z,4.95
2022-11-27T05:08:12.147Z,4.60
2022-11-27T05:10:39.160Z,4.38
2022-11-27T05:13:06.368Z,5.70
2022-11-27T05:15:36.911Z,5.05
2022-11-27T05:18:03.992Z,5.57
2022-11-27T05:20:30.963Z,5.35
2022-11-27T05:22:57.943Z,5.50
2022-11-27T05:25:25.329Z,4.80
2022-11-27T05:27:53.123Z,4.40
2022-11-27T05:30:20.016Z,4.00
2022-11-27T05:32:47.045Z,4.75
2022-11-27T05:35:13.949Z,4.65
2022-11-27T05:37:40.935Z,4.70
2022-11-27T05:40:09.693Z,4.05
2022-11-27T05:42:36.685Z,4.07
2022-11-27T05:45:04.541Z,4.28
2022-11-27T05:47:31.848Z,3.88
2022-11-27T05:49:58.813Z,4.03
2022-11-27T05:52:25.837Z,3.85
2022-11-27T05:54:55.162Z,4.20
2022-11-27T05:57:22.376Z,4.50
2022-11-27T05:59:49.523Z,4.03
2022-11-27T06:02:21.580Z,4.20
2022-11-27T06:04:49.663Z,4.03
2022-11-27T06:07:16.707Z,4.70
2022-11-27T06:09:44.591Z,5.55
2022-11-27T06:12:11.781Z,4.60
2022-11-27T06:14:39.020Z,3.72
2022-11-27T06:17:06.227Z,3.90
2022-11-27T06:19:34.028Z,4.13
2022-11-27T06:22:01.247Z,3.70
2022-11-27T06:24:28.236Z,3.80
2022-11-27T06:26:55.228Z,4.00
2022-11-27T06:29:22.124Z,3.90
2022-11-27T06:31:49.182Z,4.50
2022-11-27T06:34:17.058Z,4.38
2022-11-27T06:36:44.007Z,4.82
2022-11-27T06:39:12.056Z,4.25
2022-11-27T06:41:39.190Z,4.85
2022-11-27T06:44:06.269Z,4.57
2022-11-27T06:46:33.348Z,4.75
2022-11-27T06:49:01.239Z,4.18
2022-11-27T06:51:30.679Z,4.30
2022-11-27T06:54:00.260Z,4.35
2022-11-27T06:56:31.252Z,4.43
2022-11-27T06:59:01.952Z,13.32
2022-11-27T07:01:30.916Z,8.63
2022-11-27T07:03:58.962Z,6.07
2022-11-27T07:06:27.207Z,4.78
2022-11-27T07:08:55.720Z,4.47
2022-11-27T07:11:25.611Z,4.70
2022-11-27T07:13:55.885Z,4.88
2022-11-27T07:16:23.778Z,4.05
2022-11-27T07:18:59.809Z,4.60
2022-11-27T07:23:53.986Z,4.57
2022-11-27T07:26:23.889Z,4.60
2022-11-27T07:28:51.339Z,4.43
2022-11-27T07:31:22.918Z,4.70
2022-11-27T07:33:52.553Z,4.22
2022-11-27T07:36:29.370Z,4.60
2022-11-27T07:38:58.235Z,4.07
2022-11-27T07:41:32.439Z,4.28
2022-11-27T07:44:11.347Z,4.82
2022-11-27T07:46:40.261Z,5.47
2022-11-27T07:49:07.332Z,5.25
2022-11-27T07:51:34.543Z,5.32
2022-11-27T07:54:01.607Z,5.05
2022-11-27T07:56:28.605Z,5.32
2022-11-27T07:58:57.868Z,4.78
2022-11-27T08:01:24.993Z,5.68
2022-11-27T08:03:52.004Z,5.88
2022-11-27T08:06:25.058Z,5.30
2022-11-27T08:08:53.589Z,5.63
2022-11-27T08:11:30.431Z,6.35
2022-11-27T08:14:00.280Z,6.10
2022-11-27T08:16:27.939Z,6.18
2022-11-27T08:18:55.175Z,6.38
2022-11-27T08:21:22.667Z,5.82
2022-11-27T08:23:50.896Z,5.57
2022-11-27T08:26:19.189Z,6.40
2022-11-27T08:28:46.362Z,6.07
2022-11-27T08:31:15.181Z,6.25
2022-11-27T08:33:42.226Z,5.78
2022-11-27T08:36:13.645Z,5.53
2022-11-27T08:38:44.493Z,5.10
2022-11-27T08:41:11.563Z,5.30
2022-11-27T08:43:38.566Z,5.25
2022-11-27T08:46:06.969Z,5.53
2022-11-27T08:48:34.686Z,4.95
2022-11-27T08:51:11.445Z,4.53
2022-11-27T08:53:39.350Z,4.85
2022-11-27T08:56:18.457Z,4.10
2022-11-27T08:58:46.614Z,4.03
2022-11-27T09:01:18.354Z,4.13
2022-11-27T09:03:47.764Z,4.63
2022-11-27T09:06:19.113Z,4.20
2022-11-27T09:08:46.178Z,4.50
2022-11-27T09:11:20.216Z,3.90
2022-11-27T09:13:48.190Z,4.32
2022-11-27T09:16:17.513Z,4.10
2022-11-27T09:18:50.192Z,4.05
2022-11-27T09:21:19.604Z,3.92
2022-11-27T09:23:46.878Z,4.10
2022-11-27T09:26:16.735Z,4.30
2022-11-27T09:28:44.889Z,4.22
2022-11-27T09:31:14.305Z,4.47
2022-11-27T09:33:41.950Z,4.07
2022-11-27T09:36:12.187Z,4.18
2022-11-27T09:38:39.233Z,4.28
2022-11-27T09:41:45.131Z,3.80
2022-11-27T09:44:19.085Z,4.32
2022-11-27T09:46:46.180Z,3.85
2022-11-27T09:49:30.268Z,4.45
2022-11-27T09:52:28.643Z,4.72
2022-11-27T09:55:04.634Z,4.85
2022-11-27T09:57:35.209Z,4.95
2022-11-27T10:00:13.364Z,4.85
2022-11-27T10:02:43.132Z,4.80
2022-11-27T10:05:37.459Z,4.85
2022-11-27T10:08:28.896Z,4.68
2022-11-27T10:10:56.045Z,4.20
2022-11-27T10:13:36.380Z,4.03
2022-11-27T10:16:18.569Z,2.90
2022-11-27T10:19:03.646Z,2.90
2022-11-27T10:21:53.094Z,3.25
2022-11-27T10:24:24.517Z,3.40
2022-11-27T10:26:55.026Z,3.35
2022-11-27T10:29:32.796Z,3.47
2022-11-27T10:32:05.269Z,2.80
2022-11-27T10:34:40.651Z,2.63
2022-11-27T10:37:19.421Z,2.70
2022-11-27T10:39:50.529Z,2.67
2022-11-27T10:42:33.381Z,2.40
2022-11-27T10:45:19.537Z,2.65
2022-11-27T10:50:17.849Z,2.60
2022-11-27T10:52:52.488Z,2.80
2022-11-27T10:55:48.512Z,2.38
2022-11-27T10:58:36.622Z,2.15
2022-11-27T11:01:09.655Z,2.70
2022-11-27T11:03:37.477Z,2.72
2022-11-27T11:06:24.855Z,2.88
2022-11-27T11:09:12.567Z,2.40
2022-11-27T11:11:39.784Z,2.40
2022-11-27T11:14:24.853Z,2.22
2022-11-27T11:16:53.905Z,2.85
2022-11-27T11:19:39.839Z,2.50
2022-11-27T11:22:16.518Z,2.20
2022-11-27T11:24:54.027Z,4.32
2022-11-27T11:27:26.509Z,2.78
2022-11-27T11:29:56.585Z,3.17
2022-11-27T11:32:40.758Z,2.42
2022-11-27T11:35:37.178Z,2.80
2022-11-27T11:38:07.804Z,2.53
2022-11-27T11:40:37.179Z,2.97
2022-11-27T11:43:10.024Z,4.95
2022-11-27T11:45:47.323Z,3.35
2022-11-27T11:48:26.655Z,3.60
2022-11-27T11:51:01.695Z,2.72
2022-11-27T11:53:45.573Z,2.35
2022-11-27T11:56:18.715Z,2.28
2022-11-27T11:58:56.657Z,3.10
2022-11-27T12:01:45.522Z,3.80
2022-11-27T12:04:40.143Z,2.47
2022-11-27T12:07:22.181Z,3.28
2022-11-27T12:10:28.829Z,2.92
2022-11-27T12:13:13.972Z,2.67
2022-11-27T12:15:47.119Z,2.65
2022-11-27T12:18:33.654Z,2.47
2022-11-27T12:21:15.455Z,6.22
2022-11-27T12:24:01.373Z,3.20
2022-11-27T12:27:06.102Z,3.00
2022-11-27T12:29:39.541Z,3.88
2022-11-27T12:32:26.379Z,3.60
2022-11-27T12:34:53.639Z,2.42
2022-11-27T12:37:32.809Z,2.38
2022-11-27T12:40:15.168Z,2.47
2022-11-27T12:43:00.436Z,4.18
2022-11-27T12:45:39.043Z,4.35
2022-11-27T12:48:15.748Z,4.47
2022-11-27T12:51:03.580Z,6.05
2022-11-27T12:53:41.080Z,3.55
2022-11-27T12:56:26.971Z,2.72
2022-11-27T12:58:59.200Z,2.17
2022-11-27T13:01:36.503Z,2.55
2022-11-27T13:04:09.650Z,2.45
2022-11-27T13:06:48.287Z,2.75
2022-11-27T13:09:49.870Z,2.50
2022-11-27T13:12:46.229Z,3.05
2022-11-27T13:15:41.553Z,2.55
2022-11-27T13:18:32.694Z,3.30
2022-11-27T13:21:02.444Z,2.65
2022-11-27T13:23:33.434Z,3.20
2022-11-27T13:26:05.914Z,3.22
2022-11-27T13:28:47.870Z,3.45
2022-11-27T13:31:23.898Z,3.13
2022-11-27T13:33:52.404Z,3.97
2022-11-27T13:36:32.108Z,2.97
2022-11-27T13:39:02.771Z,3.22
2022-11-27T13:41:40.848Z,3.17
2022-11-27T13:44:27.762Z,2.90
2022-11-27T13:46:59.183Z,3.30
2022-11-27T13:49:28.319Z,3.10
2022-11-27T13:52:05.890Z,3.78
2022-11-27T13:54:32.919Z,3.90
2022-11-27T13:57:19.885Z,4.18
2022-11-27T13:59:59.395Z,3.75
2022-11-27T14:02:44.195Z,3.42
2022-11-27T14:05:12.965Z,4.25
2022-11-27T14:07:52.762Z,7.70
2022-11-27T14:10:25.006Z,5.00
2022-11-27T14:13:10.341Z,4.20
2022-11-27T14:15:38.929Z,5.03
2022-11-27T14:18:14.907Z,4.13
2022-11-27T14:23:14.347Z,4.20
2022-11-27T14:25:41.828Z,3.67
2022-11-27T14:28:21.993Z,4.82
2022-11-27T14:30:52.390Z,4.40
2022-11-27T14:33:24.987Z,4.72
2022-11-27T14:35:55.290Z,4.20
2022-11-27T14:38:24.503Z,4.20
2022-11-27T14:40:55.776Z,4.38
2022-11-27T14:43:26.161Z,4.10
2022-11-27T14:45:56.263Z,4.00
2022-11-27T14:48:25.794Z,3.90
2022-11-27T14:50:54.919Z,4.22
2022-11-27T14:53:25.244Z,3.60
2022-11-27T14:55:57.211Z,4.43
2022-11-27T14:58:29.299Z,3.75
2022-11-27T15:01:07.910Z,3.65
2022-11-27T15:03:35.062Z,3.83
2022-11-27T15:06:07.241Z,4.00
2022-11-27T15:08:36.326Z,3.80
2022-11-27T15:11:05.580Z,3.80
2022-11-27T15:13:37.591Z,4.10
2022-11-27T15:16:13.873Z,3.80
2022-11-27T15:18:42.992Z,4.28
2022-11-27T15:21:12.792Z,4.13
2022-11-27T15:23:49.729Z,5.47
2022-11-27T15:26:31.966Z,7.00
2022-11-27T15:28:59.591Z,7.53
2022-11-27T15:31:37.470Z,5.25
2022-11-27T15:34:23.716Z,4.57
2022-11-27T15:37:06.291Z,3.60
2022-11-27T15:39:52.144Z,3.58
2022-11-27T15:42:20.258Z,3.90
2022-11-27T15:44:49.859Z,3.70
2022-11-27T15:47:22.653Z,3.78
2022-11-27T15:49:50.367Z,3.97
2022-11-27T15:52:17.336Z,3.78
2022-11-27T15:54:44.600Z,4.05
2022-11-27T15:57:12.903Z,3.67
2022-11-27T15:59:40.186Z,4.32
2022-11-27T16:02:07.479Z,4.20
2022-11-27T16:04:34.753Z,4.50
2022-11-27T16:07:01.695Z,4.65
2022-11-27T16:09:28.759Z,4.47
2022-11-27T16:11:55.751Z,4.57
2022-11-27T16:14:23.237Z,4.50
2022-11-27T16:16:50.762Z,4.15
2022-11-27T16:19:17.833Z,4.07
2022-11-27T16:21:44.871Z,4.43
2022-11-27T16:24:14.428Z,4.80
2022-11-27T16:26:42.021Z,5.22
2022-11-27T16:29:10.619Z,4.30
2022-11-27T16:31:37.592Z,5.07
2022-11-27T16:34:06.032Z,4.57
2022-11-27T16:36:34.373Z,4.68
2022-11-27T16:39:02.545Z,4.78
2022-11-27T16:41:29.542Z,4.72
2022-11-27T16:43:57.637Z,4.50
2022-11-27T16:46:28.448Z,5.15
2022-11-27T16:48:57.178Z,4.95
2022-11-27T16:51:28.426Z,5.20
2022-11-27T16:53:57.295Z,4.50
2022-11-27T16:56:27.981Z,5.03
2022-11-27T16:59:02.204Z,4.35
2022-11-27T17:01:36.120Z,5.05
2022-11-27T17:04:09.180Z,4.30
2022-11-27T17:06:38.255Z,4.53
2022-11-27T17:09:07.337Z,4.30
2022-11-27T17:11:36.715Z,4.80
2022-11-27T17:14:08.846Z,5.28
2022-11-27T17:16:37.132Z,5.03
2022-11-27T17:19:06.328Z,5.65
2022-11-27T17:21:35.796Z,8.45
2022-11-27T17:24:13.183Z,7.22
2022-11-27T17:26:44.028Z,6.93
2022-11-27T17:29:13.683Z,5.82
2022-11-27T17:31:42.316Z,5.93
2022-11-27T17:34:13.424Z,5.78
2022-11-27T17:36:43.064Z,5.65
2022-11-27T17:39:13.385Z,8.57
2022-11-27T17:41:41.484Z,10.55
2022-11-27T17:44:08.643Z,16.63
2022-11-27T17:46:37.037Z,17.67
2022-11-27T17:49:07.345Z,22.83
2022-11-27T17:51:35.648Z,24.38
2022-11-27T17:54:03.927Z,24.60
2022-11-27T17:56:32.879Z,24.20
2022-11-27T17:59:00.027Z,23.27
2022-11-27T18:01:29.274Z,19.08
2022-11-27T18:04:00.515Z,17.38
2022-11-27T18:06:30.183Z,14.80
2022-11-27T18:08:59.387Z,17.70
2022-11-27T18:11:30.144Z,17.55
2022-11-27T18:13:59.939Z,13.25
2022-11-27T18:16:35.018Z,11.02
2022-11-27T18:19:08.070Z,10.30
2022-11-27T18:21:37.176Z,8.57
2022-11-27T18:27:11.321Z,5.93
2022-11-27T18:29:40.803Z,5.90
2022-11-27T18:32:08.950Z,4.55
2022-11-27T18:34:36.093Z,4.88
2022-11-27T18:37:03.856Z,4.50
2022-11-27T18:39:31.751Z,4.30
2022-11-27T18:41:58.816Z,4.47
2022-11-27T18:44:27.188Z,4.90
2022-11-27T18:46:55.068Z,4.30
2022-11-27T18:49:23.353Z,4.30
2022-11-27T18:51:52.589Z,4.70
2022-11-27T18:54:20.341Z,6.25
2022-11-27T18:56:48.125Z,8.57
2022-11-27T18:59:15.387Z,9.98
2022-11-27T19:01:42.955Z,7.53
2022-11-27T19:04:11.577Z,6.43
2022-11-27T19:06:39.571Z,5.75
2022-11-27T19:09:07.022Z,5.80
2022-11-27T19:11:35.249Z,5.20
2022-11-27T19:14:04.446Z,4.60
2022-11-27T19:16:34.796Z,4.80
2022-11-27T19:19:04.452Z,5.32
2022-11-27T19:21:33.812Z,6.43
2022-11-27T19:24:03.143Z,6.75
2022-11-27T19:26:33.902Z,6.38
2022-11-27T19:29:05.828Z,8.43
2022-11-27T19:31:33.888Z,6.97
2022-11-27T19:34:02.516Z,8.75
2022-11-27T19:36:31.480Z,8.70
2022-11-27T19:39:08.090Z,8.60
2022-11-27T19:41:35.452Z,8.05
2022-11-27T19:44:04.787Z,8.63
2022-11-27T19:46:37.606Z,7.97
2022-11-27T19:49:12.758Z,11.70
2022-11-27T19:51:40.642Z,11.95
2022-11-27T19:54:12.814Z,9.40
2022-11-27T19:56:42.339Z,8.40
2022-11-27T19:59:10.730Z,6.97
2022-11-27T20:01:40.835Z,6.80
2022-11-27T20:04:11.104Z,6.40
2022-11-27T20:06:38.896Z,6.53
2022-11-27T20:09:06.838Z,7.63
2022-11-27T20:11:35.652Z,7.95
2022-11-27T20:14:05.596Z,8.63
2022-11-27T20:16:35.186Z,8.80
2022-11-27T20:19:05.706Z,9.57
2022-11-27T20:21:36.622Z,9.98
2022-11-27T20:24:04.535Z,9.48
2022-11-27T20:26:37.201Z,9.82
2022-11-27T20:29:07.711Z,10.38
2022-11-27T20:31:37.704Z,10.18
2022-11-27T20:34:07.018Z,10.40
2022-11-27T20:36:38.462Z,11.35
2022-11-27T20:39:05.608Z,12.20
2022-11-27T20:41:32.665Z,13.48
2022-11-27T20:44:01.748Z,15.45
2022-11-27T20:46:31.607Z,13.55
2022-11-27T20:48:59.926Z,16.15
2022-11-27T20:51:33.419Z,18.30
2022-11-27T20:54:07.575Z,16.05
2022-11-27T20:56:34.804Z,12.50
2022-11-27T20:59:02.061Z,12.23
2022-11-27T21:01:34.943Z,12.25
2022-11-27T21:04:09.309Z,11.98
2022-11-27T21:06:43.500Z,11.52
2022-11-27T21:09:14.257Z,10.60
2022-11-27T21:11:42.957Z,11.45
2022-11-27T21:14:12.087Z,11.02
2022-11-27T21:16:47.201Z,12.77
2022-11-27T21:19:18.507Z,11.65
2022-11-27T21:21:47.413Z,11.00
2022-11-27T21:24:14.625Z,10.90
2022-11-27T21:26:42.190Z,10.77
2022-11-27T21:29:10.801Z,10.65
2022-11-27T21:31:42.651Z,10.73
2022-11-27T21:34:14.426Z,10.55
2022-11-27T21:36:41.647Z,10.90
2022-11-27T21:39:11.440Z,10.82
2022-11-27T21:41:38.725Z,11.25
2022-11-27T21:44:06.473Z,11.00
2022-11-27T21:46:37.983Z,10.95
2022-11-27T21:49:06.419Z,11.52
2022-11-27T21:51:33.613Z,10.40
2022-11-27T21:54:07.460Z,9.45
2022-11-27T21:56:37.688Z,9.57
2022-11-27T21:59:05.343Z,11.27
2022-11-27T22:01:32.778Z,11.07
2022-11-27T22:04:01.501Z,10.68
2022-11-27T22:06:30.972Z,12.00
2022-11-27T22:08:59.096Z,10.77
2022-11-27T22:11:30.958Z,10.98
2022-11-27T22:14:02.391Z,10.85
2022-11-27T22:16:32.765Z,10.32
2022-11-27T22:19:00.320Z,12.05
2022-11-27T22:21:28.974Z,11.18
2022-11-27T22:23:57.191Z,11.75
2022-11-27T22:26:25.407Z,11.35
2022-11-27T22:28:53.344Z,11.10
2022-11-27T22:31:24.210Z,11.68
2022-11-27T22:33:52.350Z,10.07
2022-11-27T22:36:30.380Z,10.57
2022-11-27T22:39:06.155Z,10.75
2022-11-27T22:41:36.750Z,9.40
2022-11-27T22:44:15.339Z,10.73
2022-11-27T22:46:43.181Z,10.88
2022-11-27T22:49:13.222Z,10.20
2022-11-27T22:51:41.582Z,10.85
2022-11-27T22:54:13.326Z,10.90
2022-11-27T22:56:45.692Z,10.20
2022-11-27T23:02:04.073Z,10.20
2022-11-27T23:04:32.968Z,9.93
2022-11-27T23:07:00.428Z,10.10
2022-11-27T23:09:33.255Z,9.52
2022-11-27T23:12:01.992Z,9.65
2022-11-27T23:14:29.585Z,10.32
2022-11-27T23:17:00.230Z,9.70
2022-11-27T23:19:27.887Z,10.13
2022-11-27T23:21:55.977Z,9.95
2022-11-27T23:24:24.912Z,9.95
2022-11-27T23:26:52.529Z,9.23
2022-11-27T23:29:20.505Z,9.23
2022-11-27T23:31:48.066Z,9.77
2022-11-27T23:34:16.891Z,9.60
2022-11-27T23:36:47.494Z,9.90
2022-11-27T23:39:17.999Z,9.40
2022-11-27T23:41:49.813Z,8.30
2022-11-27T23:44:17.146Z,8.23
2022-11-27T23:46:44.445Z,8.25
2022-11-27T23:49:11.950Z,9.68
2022-11-27T23:51:40.001Z,8.73
2022-11-27T23:54:09.726Z,8.95
2022-11-27T23:56:38.734Z,8.95
2022-11-27T23:59:06.424Z,8.13
